Time;durP1;ratioP1;P1;durP2;ratioP2;P2;SDS_P1;SDS_P2;PMS_P1;PMS_P2;Temp;Humidity;BMP_temperature;BMP_pressure;BME280_temperature;BME280_humidity;BME280_pressure;Samples;Min_cycle;Max_cycle;Signal;HPM_P1;HPM_P2
2022/09/07 00:01:07;;;;;;;9.57;4.75;;;24.00;73.00;;;;;;4986579;28;20034;-69
2022/09/07 00:03:33;;;;;;;11.98;4.80;;;24.00;73.10;;;;;;4977390;28;20049;-68
2022/09/07 00:06:03;;;;;;;11.55;4.82;;;23.90;73.10;;;;;;4985486;28;20035;-68
2022/09/07 00:08:30;;;;;;;11.55;5.63;;;24.00;73.10;;;;;;4976849;28;20031;-68
2022/09/07 00:11:00;;;;;;;10.68;5.13;;;23.90;73.10;;;;;;4987055;28;20026;-68
2022/09/07 00:13:29;;;;;;;9.55;4.72;;;23.90;73.10;;;;;;4983610;28;20097;-68
2022/09/07 00:15:55;;;;;;;7.18;4.57;;;23.90;73.20;;;;;;4988553;28;20030;-68
2022/09/07 00:18:21;;;;;;;9.32;5.15;;;23.90;73.40;;;;;;4981010;28;20039;-68
2022/09/07 00:20:55;;;;;;;13.82;4.90;;;23.80;73.70;;;;;;4983325;28;20053;-68
2022/09/07 00:23:21;;;;;;;10.32;5.18;;;23.80;74.00;;;;;;4980368;28;20049;-68
2022/09/07 00:25:46;;;;;;;17.67;5.05;;;23.80;74.10;;;;;;4984281;28;20026;-68
2022/09/07 00:28:12;;;;;;;11.18;5.32;;;23.80;74.10;;;;;;4974863;28;20043;-68
2022/09/07 00:30:41;;;;;;;6.90;4.43;;;23.70;74.10;;;;;;4990237;28;20026;-68
2022/09/07 00:33:08;;;;;;;14.88;5.47;;;23.70;74.40;;;;;;4981931;28;20034;-68
2022/09/07 00:35:39;;;;;;;13.43;5.70;;;23.70;74.80;;;;;;4980152;28;20478;-68
2022/09/07 00:38:05;;;;;;;9.43;4.88;;;23.60;74.80;;;;;;4994049;28;20038;-68
2022/09/07 00:40:31;;;;;;;8.05;5.70;;;23.60;74.80;;;;;;4993461;28;20037;-68
2022/09/07 00:42:56;;;;;;;7.10;5.30;;;23.60;75.00;;;;;;4982119;28;20054;-68
2022/09/07 00:45:22;;;;;;;10.40;5.65;;;23.50;75.30;;;;;;4980903;28;20117;-68
2022/09/07 00:47:56;;;;;;;12.32;5.50;;;23.60;75.90;;;;;;4993533;28;20359;-68
2022/09/07 00:50:27;;;;;;;9.73;5.57;;;23.60;76.60;;;;;;4975332;28;20104;-68
2022/09/07 00:53:01;;;;;;;15.60;6.03;;;23.60;76.30;;;;;;4974781;28;20038;-68
2022/09/07 00:55:30;;;;;;;9.60;5.93;;;23.50;76.20;;;;;;4974386;28;20427;-68
2022/09/07 00:57:57;;;;;;;12.98;6.57;;;23.50;76.40;;;;;;4986693;28;20034;-68
2022/09/07 01:00:23;;;;;;;8.85;5.22;;;23.50;76.40;;;;;;4984214;28;20048;-68
2022/09/07 01:02:52;;;;;;;10.63;6.18;;;23.50;77.10;;;;;;4978096;28;20530;-68
2022/09/07 01:05:35;;;;;;;20.10;6.68;;;23.50;77.50;;;;;;4976889;28;20038;-68
2022/09/07 01:08:01;;;;;;;8.68;5.53;;;23.40;77.30;;;;;;4993106;28;20057;-68
2022/09/07 01:10:32;;;;;;;9.25;6.43;;;23.40;77.20;;;;;;4993439;28;20068;-68
2022/09/07 01:13:01;;;;;;;10.55;5.97;;;23.40;77.60;;;;;;4963239;28;20038;-68
2022/09/07 01:16:22;;;;;;;16.85;6.60;;;23.40;78.00;;;;;;4986027;28;20030;-68
2022/09/07 01:19:19;;;;;;;12.18;5.68;;;23.40;78.10;;;;;;4913555;28;20387;-68
2022/09/07 01:21:44;;;;;;;7.90;5.95;;;23.30;78.60;;;;;;4980389;28;20043;-68
2022/09/07 01:24:49;;;;;;;10.70;6.47;;;23.30;78.70;;;;;;4979802;28;20045;-68
2022/09/07 01:27:44;;;;;;;12.57;6.70;;;23.30;79.00;;;;;;4974875;28;20041;-68
2022/09/07 01:30:17;;;;;;;11.27;6.38;;;23.20;79.10;;;;;;4959766;28;20035;-68
2022/09/07 01:33:13;;;;;;;13.32;6.93;;;23.20;79.60;;;;;;4985169;28;20038;-67
2022/09/07 01:35:54;;;;;;;13.10;7.25;;;23.30;79.80;;;;;;4989030;28;20092;-68
2022/09/07 01:38:25;;;;;;;10.75;6.53;;;23.20;80.10;;;;;;4978877;28;20462;-68
2022/09/07 01:41:28;;;;;;;9.45;6.07;;;23.20;80.60;;;;;;4979097;28;20034;-68
2022/09/07 01:43:54;;;;;;;10.45;6.40;;;23.20;80.70;;;;;;4972832;28;20397;-68
2022/09/07 01:46:27;;;;;;;12.27;6.57;;;23.10;80.90;;;;;;4982201;28;20030;-68
2022/09/07 01:48:59;;;;;;;12.73;5.97;;;23.10;81.30;;;;;;4983225;28;20034;-68
2022/09/07 01:51:30;;;;;;;10.25;5.22;;;23.10;80.00;;;;;;4986284;28;20034;-68
2022/09/07 01:54:01;;;;;;;9.52;5.43;;;23.10;79.10;;;;;;4982779;28;20449;-68
2022/09/07 01:56:32;;;;;;;9.50;6.53;;;23.10;79.00;;;;;;4979274;28;20506;-68
2022/09/07 01:59:13;;;;;;;9.75;6.38;;;23.00;79.10;;;;;;4976890;28;20684;-68
2022/09/07 02:01:59;;;;;;;13.90;4.68;;;23.00;79.00;;;;;;4966867;28;20045;-68
2022/09/07 02:04:43;;;;;;;13.25;5.88;;;23.00;78.50;;;;;;4982308;28;20058;-68
2022/09/07 02:07:25;;;;;;;9.13;5.90;;;23.00;78.40;;;;;;4986347;28;20395;-68
2022/09/07 02:10:00;;;;;;;4.72;3.40;;;22.90;78.50;;;;;;4976108;28;20027;-68
2022/09/07 02:12:41;;;;;;;7.65;4.22;;;22.90;78.30;;;;;;4984254;28;20046;-68
2022/09/07 02:15:15;;;;;;;17.33;5.13;;;22.90;78.10;;;;;;4991169;28;20113;-68
2022/09/07 02:17:43;;;;;;;10.85;6.00;;;22.90;78.10;;;;;;4993788;28;20044;-68
2022/09/07 02:20:21;;;;;;;12.50;6.57;;;22.90;78.40;;;;;;4968918;28;20030;-68
2022/09/07 02:22:52;;;;;;;10.02;6.90;;;22.80;78.60;;;;;;4977991;28;20047;-68
2022/09/07 02:25:24;;;;;;;15.45;6.38;;;22.80;78.80;;;;;;4976910;28;20057;-68
2022/09/07 02:27:57;;;;;;;13.47;5.40;;;22.80;78.80;;;;;;4979341;28;20070;-68
2022/09/07 02:30:23;;;;;;;;;;;22.70;78.50;;;;;;4991797;28;20110;-67
2022/09/07 02:32:49;;;;;;;11.38;6.07;;;22.70;77.90;;;;;;4982021;28;20004;-67
2022/09/07 02:35:15;;;;;;;15.25;6.90;;;22.70;78.40;;;;;;4981457;28;20027;-69
2022/09/07 02:37:42;;;;;;;13.48;6.50;;;22.70;79.20;;;;;;4985424;28;20035;-69
2022/09/07 02:40:09;;;;;;;13.60;8.23;;;22.60;79.40;;;;;;4991106;28;20382;-69
2022/09/07 02:42:35;;;;;;;15.73;7.95;;;22.60;80.00;;;;;;4979101;28;20038;-69
2022/09/07 02:45:04;;;;;;;12.82;7.80;;;22.60;81.00;;;;;;4977470;28;20494;-68
2022/09/07 02:48:03;;;;;;;14.10;6.88;;;22.60;81.80;;;;;;4992837;28;20041;-69
2022/09/07 02:50:43;;;;;;;10.00;6.45;;;22.60;82.30;;;;;;4981557;28;20030;-69
2022/09/07 02:53:21;;;;;;;12.77;6.35;;;22.60;82.50;;;;;;4993150;28;20050;-69
2022/09/07 02:56:08;;;;;;;10.63;5.90;;;22.60;82.30;;;;;;4994114;28;20393;-69
2022/09/07 02:58:56;;;;;;;10.93;5.85;;;22.60;82.10;;;;;;4973087;28;20026;-69
2022/09/07 03:01:37;;;;;;;11.63;5.28;;;22.50;82.00;;;;;;4983625;28;20028;-69
2022/09/07 03:04:19;;;;;;;12.85;5.35;;;22.50;82.70;;;;;;4981239;28;20031;-69
2022/09/07 03:07:28;;;;;;;10.80;4.93;;;22.50;82.80;;;;;;4982758;28;20055;-68
2022/09/07 03:09:57;;;;;;;9.85;5.15;;;22.40;82.60;;;;;;4878928;29;20033;-68
2022/09/07 03:12:23;;;;;;;8.98;5.32;;;22.40;83.10;;;;;;4879467;29;20099;-68
2022/09/07 03:14:49;;;;;;;10.95;5.85;;;22.40;83.50;;;;;;4930935;28;20039;-69
2022/09/07 03:17:14;;;;;;;17.23;6.45;;;22.40;83.90;;;;;;4982915;28;20069;-69
2022/09/07 03:19:40;;;;;;;11.70;5.82;;;22.40;84.20;;;;;;4976657;28;20034;-69
2022/09/07 03:22:06;;;;;;;11.40;6.18;;;22.40;84.50;;;;;;4985456;28;20077;-69
2022/09/07 03:24:32;;;;;;;10.82;5.88;;;22.40;84.80;;;;;;4987024;28;20025;-67
2022/09/07 03:26:58;;;;;;;13.68;6.90;;;22.40;85.00;;;;;;4988868;28;20508;-69
2022/09/07 03:29:26;;;;;;;12.52;7.13;;;22.40;85.20;;;;;;4981497;28;20035;-69
2022/09/07 03:31:51;;;;;;;13.27;6.22;;;22.40;85.30;;;;;;4987301;28;20105;-69
2022/09/07 03:34:17;;;;;;;12.90;7.60;;;22.40;85.40;;;;;;4978740;28;20526;-69
2022/09/07 03:36:43;;;;;;;9.35;6.40;;;22.30;85.40;;;;;;4981009;28;20264;-69
2022/09/07 03:39:11;;;;;;;12.65;6.00;;;22.30;85.60;;;;;;4987898;28;20114;-67
2022/09/07 03:41:36;;;;;;;10.65;6.18;;;22.30;85.90;;;;;;4980666;28;20034;-67
2022/09/07 03:44:04;;;;;;;11.73;7.35;;;22.20;85.80;;;;;;4980280;28;20110;-67
2022/09/07 03:46:29;;;;;;;16.80;6.90;;;22.20;86.10;;;;;;4976399;28;20034;-67
2022/09/07 03:48:55;;;;;;;10.32;6.85;;;22.20;86.40;;;;;;4980939;28;20034;-67
2022/09/07 03:51:21;;;;;;;10.50;6.28;;;22.20;86.70;;;;;;4980105;28;20061;-69
2022/09/07 03:53:47;;;;;;;10.55;6.53;;;22.10;87.00;;;;;;4979801;28;20038;-69
2022/09/07 03:56:21;;;;;;;12.15;5.80;;;22.10;87.10;;;;;;4980670;28;20034;-66
2022/09/07 03:58:48;;;;;;;9.45;6.60;;;22.10;87.10;;;;;;4981999;28;20059;-67
2022/09/07 04:01:20;;;;;;;10.73;6.38;;;22.00;87.20;;;;;;4984506;28;20050;-66
2022/09/07 04:03:47;;;;;;;11.02;7.03;;;22.10;87.60;;;;;;4976099;28;20034;-67
2022/09/07 04:06:14;;;;;;;9.52;6.53;;;22.00;87.70;;;;;;4981514;28;20046;-68
2022/09/07 04:08:40;;;;;;;14.50;6.70;;;22.00;87.70;;;;;;4976342;28;20037;-69
2022/09/07 04:11:08;;;;;;;13.70;7.47;;;22.00;87.60;;;;;;4975057;28;20023;-69
2022/09/07 04:13:35;;;;;;;9.48;6.82;;;22.00;87.70;;;;;;4976013;28;20039;-69
2022/09/07 04:16:22;;;;;;;12.40;6.97;;;22.00;87.80;;;;;;4976650;28;20412;-69
2022/09/07 04:18:49;;;;;;;11.20;7.22;;;21.90;88.00;;;;;;4975909;28;20027;-69
2022/09/07 04:21:16;;;;;;;13.82;7.53;;;21.90;87.90;;;;;;4977711;28;20478;-69
2022/09/07 04:23:42;;;;;;;10.52;6.95;;;21.90;88.00;;;;;;4976758;28;20402;-68
2022/09/07 04:26:26;;;;;;;11.98;7.45;;;21.80;88.20;;;;;;4986015;28;20035;-69
2022/09/07 04:28:53;;;;;;;12.63;8.00;;;21.90;88.60;;;;;;4988621;28;20041;-68
2022/09/07 04:31:19;;;;;;;12.23;8.13;;;21.80;88.60;;;;;;4987651;28;20085;-70
2022/09/07 04:33:47;;;;;;;14.02;8.40;;;21.80;88.70;;;;;;4979477;28;20031;-68
2022/09/07 04:36:14;;;;;;;15.82;9.23;;;21.80;88.70;;;;;;4987632;28;20034;-68
2022/09/07 04:38:41;;;;;;;12.85;7.88;;;21.80;88.70;;;;;;4990914;28;20089;-68
2022/09/07 04:41:09;;;;;;;16.08;8.48;;;21.80;88.70;;;;;;4992137;28;20026;-69
2022/09/07 04:43:37;;;;;;;14.82;9.10;;;21.80;88.90;;;;;;4978628;28;20031;-68
2022/09/07 04:46:05;;;;;;;13.45;8.68;;;21.70;88.90;;;;;;4991070;28;20465;-69
2022/09/07 04:48:30;;;;;;;16.30;8.35;;;21.70;88.90;;;;;;4986210;28;20072;-68
2022/09/07 04:51:04;;;;;;;14.18;8.57;;;21.70;88.90;;;;;;4989032;28;20474;-68
2022/09/07 04:53:30;;;;;;;15.45;9.20;;;21.70;89.30;;;;;;4988229;28;20046;-68
2022/09/07 04:55:57;;;;;;;11.82;6.60;;;21.70;89.60;;;;;;4991624;28;20026;-68
2022/09/07 04:58:23;;;;;;;12.15;7.95;;;21.70;90.00;;;;;;4989852;28;21577;-67
2022/09/07 05:00:48;;;;;;;15.35;8.85;;;21.60;90.10;;;;;;4991514;28;20114;-68
2022/09/07 05:03:20;;;;;;;15.75;9.32;;;21.60;90.00;;;;;;4992995;28;20125;-68
2022/09/07 05:05:46;;;;;;;13.65;9.60;;;21.60;89.80;;;;;;4991335;28;20030;-68
2022/09/07 05:08:12;;;;;;;19.08;10.77;;;21.50;89.80;;;;;;4980982;28;20097;-68
2022/09/07 05:10:38;;;;;;;18.73;10.93;;;21.60;90.00;;;;;;4991646;28;20136;-67
2022/09/07 05:13:03;;;;;;;19.45;11.57;;;21.50;90.00;;;;;;4990544;28;20175;-67
2022/09/07 05:15:30;;;;;;;18.80;11.20;;;21.50;90.10;;;;;;4979135;28;20454;-68
2022/09/07 05:17:58;;;;;;;16.52;10.38;;;21.50;90.20;;;;;;4982776;28;20046;-67
2022/09/07 05:20:24;;;;;;;18.33;11.43;;;21.50;90.20;;;;;;4980166;28;20371;-67
2022/09/07 05:23:11;;;;;;;17.80;10.98;;;21.50;90.20;;;;;;4987432;28;20088;-68
2022/09/07 05:25:42;;;;;;;19.55;12.55;;;21.50;90.20;;;;;;4988365;28;22318;-67
2022/09/07 05:28:08;;;;;;;21.48;11.77;;;21.50;90.30;;;;;;4988659;28;20089;-73
2022/09/07 05:30:34;;;;;;;13.55;10.77;;;21.40;90.30;;;;;;4991394;28;20422;-69
2022/09/07 05:33:00;;;;;;;16.48;11.68;;;21.50;90.30;;;;;;4990074;28;20033;-67
2022/09/07 05:35:26;;;;;;;15.88;11.75;;;21.50;90.40;;;;;;4984417;28;20092;-68
2022/09/07 05:37:52;;;;;;;18.00;11.85;;;21.40;90.40;;;;;;4991367;28;20030;-67
2022/09/07 05:40:17;;;;;;;18.25;11.63;;;21.50;90.40;;;;;;4989580;28;20027;-68
2022/09/07 05:42:53;;;;;;;17.60;11.55;;;21.50;90.50;;;;;;4981654;28;20482;-68
2022/09/07 05:45:19;;;;;;;17.83;11.40;;;21.50;90.80;;;;;;4982927;28;20125;-67
2022/09/07 05:47:49;;;;;;;21.00;11.75;;;21.50;90.50;;;;;;4985809;28;20093;-69
2022/09/07 05:50:15;;;;;;;20.05;12.48;;;21.50;90.50;;;;;;4984305;28;20389;-69
2022/09/07 05:52:40;;;;;;;20.60;11.60;;;21.50;90.50;;;;;;4979527;28;20036;-68
2022/09/07 05:55:06;;;;;;;18.25;12.02;;;21.50;90.40;;;;;;4979570;28;20050;-69
2022/09/07 05:57:32;;;;;;;19.63;11.80;;;21.50;90.50;;;;;;4984145;28;20105;-68
2022/09/07 05:59:57;;;;;;;20.27;13.20;;;21.50;90.60;;;;;;4976713;28;20027;-68
2022/09/07 06:02:23;;;;;;;26.75;12.23;;;21.50;90.60;;;;;;4974616;28;20123;-68
2022/09/07 06:04:49;;;;;;;16.63;11.15;;;21.50;90.60;;;;;;4982033;28;20026;-68
2022/09/07 06:07:15;;;;;;;18.67;11.93;;;21.50;90.70;;;;;;4988754;28;20417;-68
2022/09/07 06:09:41;;;;;;;18.05;12.23;;;21.50;90.80;;;;;;4985058;28;20026;-68
2022/09/07 06:12:06;;;;;;;21.40;12.88;;;21.50;90.90;;;;;;4988524;28;20117;-68
2022/09/07 06:14:32;;;;;;;21.92;11.95;;;21.50;90.90;;;;;;4984301;28;20387;-68
2022/09/07 06:16:59;;;;;;;21.30;12.73;;;21.50;90.90;;;;;;4976529;28;20470;-68
2022/09/07 06:19:25;;;;;;;21.25;11.93;;;21.60;91.00;;;;;;4974907;28;20035;-68
2022/09/07 06:21:50;;;;;;;27.55;13.57;;;21.60;91.10;;;;;;4976229;28;20541;-67
2022/09/07 06:24:16;;;;;;;20.92;12.75;;;21.50;91.20;;;;;;4973091;28;20058;-69
2022/09/07 06:26:41;;;;;;;20.15;12.68;;;21.50;91.20;;;;;;4977339;28;20418;-68
2022/09/07 06:29:08;;;;;;;17.27;12.15;;;21.50;91.20;;;;;;4975603;28;20070;-68
2022/09/07 06:31:33;;;;;;;24.92;12.55;;;21.60;91.20;;;;;;4974677;28;20058;-68
2022/09/07 06:33:59;;;;;;;21.25;12.63;;;21.50;91.20;;;;;;4973033;28;20061;-68
2022/09/07 06:36:28;;;;;;;21.30;11.75;;;21.60;91.30;;;;;;4972260;28;20442;-68
2022/09/07 06:38:57;;;;;;;18.17;11.38;;;21.60;91.30;;;;;;4970046;28;20037;-68
2022/09/07 06:41:26;;;;;;;18.65;12.73;;;21.60;91.30;;;;;;4976135;28;20088;-68
2022/09/07 06:43:53;;;;;;;21.00;10.93;;;21.60;90.90;;;;;;4974571;28;20128;-68
2022/09/07 06:46:18;;;;;;;20.80;11.88;;;21.60;90.80;;;;;;4973908;28;20042;-68
2022/09/07 06:48:44;;;;;;;19.50;12.02;;;21.60;90.80;;;;;;4974670;28;20023;-68
2022/09/07 06:51:18;;;;;;;37.05;12.90;;;21.60;90.40;;;;;;4973367;28;20023;-68
2022/09/07 06:53:46;;;;;;;46.97;13.77;;;21.60;90.40;;;;;;4974584;28;20190;-68
2022/09/07 06:56:17;;;;;;;21.20;11.38;;;21.60;90.40;;;;;;4974921;28;20031;-68
2022/09/07 06:58:43;;;;;;;22.80;11.77;;;21.60;90.40;;;;;;4973703;28;20045;-68
2022/09/07 07:01:17;;;;;;;19.27;10.38;;;21.70;90.50;;;;;;4974429;28;20501;-68
2022/09/07 07:03:44;;;;;;;16.35;11.70;;;21.60;90.40;;;;;;4974561;28;20042;-68
2022/09/07 07:06:10;;;;;;;20.63;11.65;;;21.60;90.00;;;;;;4977925;28;20081;-68
2022/09/07 07:08:36;;;;;;;14.55;8.50;;;21.60;90.20;;;;;;4972908;28;20386;-69
2022/09/07 07:11:04;;;;;;;23.42;8.27;;;21.60;90.40;;;;;;4986919;28;20039;-70
2022/09/07 07:13:31;;;;;;;19.20;10.45;;;21.70;90.10;;;;;;4981483;28;20389;-69
2022/09/07 07:16:07;;;;;;;20.92;9.85;;;21.70;89.40;;;;;;4973133;28;20038;-71
2022/09/07 07:18:33;;;;;;;20.20;10.88;;;21.70;89.60;;;;;;4978435;28;20065;-67
2022/09/07 07:21:04;;;;;;;23.52;11.30;;;21.70;89.60;;;;;;4989628;28;20050;-68
2022/09/07 07:23:30;;;;;;;15.43;11.60;;;21.80;90.00;;;;;;4989950;28;20038;-67
2022/09/07 07:26:01;;;;;;;14.80;11.30;;;21.70;90.20;;;;;;4980593;28;20040;-68
2022/09/07 07:28:26;;;;;;;16.77;11.63;;;21.80;90.50;;;;;;4990661;28;20073;-68
2022/09/07 07:30:57;;;;;;;17.08;11.07;;;21.80;90.40;;;;;;4994114;28;20034;-68
2022/09/07 07:33:23;;;;;;;20.98;11.88;;;21.80;90.60;;;;;;4978251;28;20142;-68
2022/09/07 07:36:16;;;;;;;17.67;11.50;;;21.80;90.70;;;;;;4977822;28;20089;-68
2022/09/07 07:38:43;;;;;;;;;;;21.80;90.70;;;;;;4983050;28;20390;-68
2022/09/07 07:41:10;;;;;;;20.13;11.80;;;21.80;90.40;;;;;;4980558;28;20138;-68
2022/09/07 07:43:35;;;;;;;16.92;11.38;;;21.80;90.60;;;;;;4975915;28;20030;-68
2022/09/07 07:46:01;;;;;;;22.23;11.82;;;21.80;90.70;;;;;;4987506;28;20081;-68
2022/09/07 07:48:27;;;;;;;14.77;10.80;;;21.80;90.90;;;;;;4989135;28;20039;-68
2022/09/07 07:51:01;;;;;;;19.50;11.52;;;21.80;91.10;;;;;;4994747;28;20054;-68
2022/09/07 07:53:27;;;;;;;15.13;11.07;;;21.90;91.20;;;;;;4993970;28;20030;-68
2022/09/07 07:55:59;;;;;;;16.90;11.75;;;21.90;91.20;;;;;;4985593;28;20482;-68
2022/09/07 07:58:26;;;;;;;20.75;10.88;;;21.90;91.20;;;;;;4988509;28;20109;-68
2022/09/07 08:00:53;;;;;;;17.23;11.10;;;22.00;91.20;;;;;;4983197;28;20041;-68
2022/09/07 08:03:19;;;;;;;16.10;10.90;;;22.00;91.10;;;;;;4991594;28;20136;-68
2022/09/07 08:05:45;;;;;;;15.20;10.32;;;22.00;91.10;;;;;;4994853;28;20034;-68
2022/09/07 08:08:10;;;;;;;24.88;10.95;;;22.10;91.20;;;;;;4980848;28;20031;-68
2022/09/07 08:10:37;;;;;;;17.88;10.70;;;22.00;91.10;;;;;;4989594;28;20045;-68
2022/09/07 08:13:02;;;;;;;17.83;10.68;;;22.10;91.20;;;;;;4975822;28;20482;-68
2022/09/07 08:15:29;;;;;;;15.02;10.73;;;22.10;91.20;;;;;;4976248;28;20027;-70
2022/09/07 08:17:56;;;;;;;20.75;10.23;;;22.10;91.30;;;;;;4975177;28;20077;-68
2022/09/07 08:20:22;;;;;;;18.70;10.35;;;22.10;91.30;;;;;;4976058;28;20082;-68
2022/09/07 08:22:50;;;;;;;60.75;16.08;;;22.10;91.40;;;;;;4976882;28;20043;-68
2022/09/07 08:25:19;;;;;;;18.02;10.57;;;22.10;91.40;;;;;;4974011;28;20081;-68
2022/09/07 08:27:45;;;;;;;18.60;10.57;;;22.10;91.40;;;;;;4973385;28;20038;-68
2022/09/07 08:30:11;;;;;;;31.00;11.77;;;22.10;91.40;;;;;;4964191;28;20037;-68
2022/09/07 08:32:36;;;;;;;19.00;11.73;;;22.10;91.50;;;;;;4972976;28;20038;-68
2022/09/07 08:35:02;;;;;;;28.58;12.30;;;22.10;91.20;;;;;;4974458;28;20038;-68
2022/09/07 08:37:28;;;;;;;22.27;11.55;;;22.20;91.10;;;;;;4974185;28;20035;-68
2022/09/07 08:39:54;;;;;;;20.90;12.70;;;22.20;91.20;;;;;;4975100;28;20472;-68
2022/09/07 08:42:38;;;;;;;17.77;12.48;;;22.20;91.10;;;;;;4975040;28;20047;-68
2022/09/07 08:45:35;;;;;;;20.58;12.48;;;22.20;91.20;;;;;;4975063;28;20146;-68
2022/09/07 08:48:03;;;;;;;16.35;9.98;;;22.20;91.20;;;;;;4975101;28;20035;-68
2022/09/07 08:50:55;;;;;;;19.67;12.98;;;22.20;90.80;;;;;;4973994;28;20027;-68
2022/09/07 08:53:23;;;;;;;16.20;11.35;;;22.20;90.60;;;;;;4974059;28;20038;-68
2022/09/07 08:55:57;;;;;;;17.85;11.40;;;22.20;90.60;;;;;;4976388;28;20035;-68
2022/09/07 08:58:45;;;;;;;26.42;12.85;;;22.20;89.40;;;;;;4973598;28;20039;-69
2022/09/07 09:01:15;;;;;;;19.98;11.52;;;22.20;89.30;;;;;;4974186;28;20126;-68
2022/09/07 09:03:41;;;;;;;21.55;12.65;;;22.20;88.30;;;;;;4974698;28;20113;-68
2022/09/07 09:06:39;;;;;;;21.02;11.55;;;22.20;88.70;;;;;;4973763;28;20042;-68
2022/09/07 09:09:25;;;;;;;20.35;11.13;;;22.20;89.30;;;;;;4986918;28;20125;-68
2022/09/07 09:11:58;;;;;;;18.65;11.23;;;22.20;86.90;;;;;;4993749;28;20045;-68
2022/09/07 09:14:45;;;;;;;16.50;10.95;;;22.20;87.00;;;;;;4991007;28;20080;-68
2022/09/07 09:17:26;;;;;;;19.73;12.82;;;22.20;87.40;;;;;;4978765;28;20373;-68
2022/09/07 09:20:23;;;;;;;17.45;11.77;;;22.20;88.80;;;;;;4983856;28;20041;-68
2022/09/07 09:22:56;;;;;;;22.15;12.38;;;22.20;89.00;;;;;;4962985;28;20517;-68
2022/09/07 09:25:30;;;;;;;20.37;12.20;;;22.30;89.50;;;;;;4974027;28;20022;-67
2022/09/07 09:27:56;;;;;;;20.55;12.63;;;22.30;89.90;;;;;;4976392;28;20478;-69
2022/09/07 09:30:23;;;;;;;19.30;12.13;;;22.30;90.00;;;;;;4987908;28;20029;-69
2022/09/07 09:32:51;;;;;;;24.90;12.35;;;22.30;88.70;;;;;;4971003;28;20470;-68
2022/09/07 09:35:38;;;;;;;17.33;11.73;;;22.40;88.20;;;;;;4980326;28;20279;-68
2022/09/07 09:38:04;;;;;;;15.20;8.75;;;22.40;87.40;;;;;;4972626;28;20039;-68
2022/09/07 09:40:32;;;;;;;15.15;10.25;;;22.40;86.30;;;;;;4982777;28;20031;-68
2022/09/07 09:43:02;;;;;;;20.35;11.10;;;22.40;86.00;;;;;;4980911;28;20039;-68
2022/09/07 09:45:41;;;;;;;14.52;9.77;;;22.40;85.90;;;;;;4984551;28;20505;-68
2022/09/07 09:48:16;;;;;;;19.67;11.23;;;22.30;86.00;;;;;;4985526;28;20366;-68
2022/09/07 09:50:48;;;;;;;17.98;10.38;;;22.40;86.20;;;;;;4977007;28;20034;-68
2022/09/07 09:53:26;;;;;;;6.75;4.57;;;22.30;86.20;;;;;;4988319;28;20117;-69
2022/09/07 09:55:53;;;;;;;14.05;8.90;;;22.30;84.90;;;;;;4972716;28;20034;-68
2022/09/07 09:58:32;;;;;;;11.00;7.35;;;22.30;86.00;;;;;;4988319;28;20058;-68
2022/09/07 10:01:04;;;;;;;15.10;9.82;;;22.20;86.20;;;;;;4990455;28;20489;-68
2022/09/07 10:03:31;;;;;;;17.85;9.05;;;22.30;86.80;;;;;;4977179;28;20038;-68
2022/09/07 10:05:59;;;;;;;17.20;11.40;;;22.30;86.70;;;;;;4989272;28;20166;-68
2022/09/07 10:08:27;;;;;;;12.25;8.27;;;22.20;87.20;;;;;;4982017;28;20041;-68
2022/09/07 10:11:09;;;;;;;15.75;11.85;;;22.30;87.10;;;;;;4988956;28;20481;-68
2022/09/07 10:13:54;;;;;;;22.00;11.80;;;22.30;87.90;;;;;;4985831;28;20118;-67
2022/09/07 10:16:43;;;;;;;16.52;10.32;;;22.30;87.80;;;;;;4970244;28;20405;-68
2022/09/07 10:19:36;;;;;;;15.20;9.63;;;22.30;87.20;;;;;;4978596;28;20109;-68
2022/09/07 10:22:19;;;;;;;10.88;6.43;;;22.40;87.60;;;;;;4990211;28;20504;-68
2022/09/07 10:24:45;;;;;;;17.42;11.30;;;22.40;87.30;;;;;;4991128;28;20124;-68
2022/09/07 10:27:27;;;;;;;14.73;9.55;;;22.40;88.10;;;;;;4977985;28;20101;-68
2022/09/07 10:29:53;;;;;;;19.13;10.02;;;22.40;87.80;;;;;;4991661;28;20037;-68
2022/09/07 10:32:40;;;;;;;16.63;9.40;;;22.40;88.10;;;;;;4972751;28;20030;-68
2022/09/07 10:35:19;;;;;;;14.48;9.70;;;22.50;87.90;;;;;;4983250;28;20147;-68
2022/09/07 10:38:06;;;;;;;15.40;10.18;;;22.50;88.00;;;;;;4974218;28;20078;-68
2022/09/07 10:40:41;;;;;;;14.63;10.75;;;22.50;88.00;;;;;;4968280;28;20023;-68
2022/09/07 10:43:21;;;;;;;13.35;8.75;;;22.50;88.10;;;;;;4969688;28;20141;-68
2022/09/07 10:46:28;;;;;;;17.98;10.52;;;22.60;87.90;;;;;;4973229;28;20043;-69
2022/09/07 10:49:20;;;;;;;19.00;10.35;;;22.60;88.00;;;;;;4979896;28;20034;-68
2022/09/07 10:52:04;;;;;;;12.73;8.95;;;22.70;87.80;;;;;;4974197;28;20038;-67
2022/09/07 10:54:35;;;;;;;15.25;8.75;;;22.80;87.90;;;;;;4976478;28;20046;-69
2022/09/07 10:57:26;;;;;;;12.60;8.98;;;22.80;87.70;;;;;;4983272;28;20038;-68
2022/09/07 11:00:15;;;;;;;13.98;9.27;;;22.80;88.00;;;;;;4982918;28;20109;-68
2022/09/07 11:03:14;;;;;;;13.60;8.75;;;22.90;87.70;;;;;;4984298;28;20553;-68
2022/09/07 11:05:55;;;;;;;12.07;8.20;;;23.00;87.50;;;;;;4991872;28;20061;-68
2022/09/07 11:09:05;;;;;;;15.73;7.82;;;23.00;87.00;;;;;;4993570;28;20600;-68
2022/09/07 11:11:42;;;;;;;15.30;8.13;;;23.10;87.10;;;;;;4974501;28;20030;-69
2022/09/07 11:14:18;;;;;;;14.13;8.88;;;23.10;87.50;;;;;;4990484;28;20065;-68
2022/09/07 11:17:12;;;;;;;11.55;7.30;;;23.10;87.20;;;;;;4990526;28;20094;-69
2022/09/07 11:20:02;;;;;;;15.13;9.95;;;23.20;86.90;;;;;;4989522;28;20085;-68
2022/09/07 11:22:41;;;;;;;13.60;9.25;;;23.20;86.80;;;;;;4991810;28;20042;-68
2022/09/07 11:25:16;;;;;;;14.00;10.15;;;23.20;87.50;;;;;;4989395;28;20061;-68
2022/09/07 11:27:46;;;;;;;13.20;8.95;;;23.30;87.80;;;;;;4979059;28;20071;-68
2022/09/07 11:30:26;;;;;;;21.35;9.43;;;23.40;88.20;;;;;;4987814;28;20034;-68
2022/09/07 11:33:01;;;;;;;15.20;9.38;;;23.50;87.60;;;;;;4995267;28;20034;-69
2022/09/07 11:35:48;;;;;;;14.85;8.93;;;23.50;87.10;;;;;;4980507;28;20032;-71
2022/09/07 11:38:28;;;;;;;13.00;7.55;;;23.50;86.60;;;;;;4990173;28;20041;-70
2022/09/07 11:41:23;;;;;;;11.60;7.10;;;23.60;86.60;;;;;;4992889;28;20065;-70
2022/09/07 11:44:03;;;;;;;10.63;7.78;;;23.70;86.60;;;;;;4982343;28;20085;-69
2022/09/07 11:46:48;;;;;;;11.45;7.38;;;23.70;86.70;;;;;;4980461;28;20035;-69
2022/09/07 11:49:19;;;;;;;8.60;6.55;;;23.80;87.40;;;;;;4995234;28;20034;-70
2022/09/07 11:52:03;;;;;;;8.32;5.97;;;23.80;86.90;;;;;;4992274;28;20061;-70
2022/09/07 11:54:41;;;;;;;8.85;4.20;;;24.00;86.00;;;;;;4984657;28;20142;-73
2022/09/07 11:57:31;;;;;;;9.43;6.65;;;24.00;85.50;;;;;;4978649;28;20066;-70
2022/09/07 12:00:10;;;;;;;11.30;7.28;;;24.00;85.80;;;;;;4969511;28;20137;-69
2022/09/07 12:02:56;;;;;;;10.18;7.45;;;24.10;86.30;;;;;;4971580;28;20048;-70
2022/09/07 12:05:56;;;;;;;10.52;6.97;;;24.10;85.80;;;;;;4984772;28;20036;-69
2022/09/07 12:08:49;;;;;;;9.68;6.63;;;24.20;85.80;;;;;;4965126;28;20050;-68
2022/09/07 12:11:40;;;;;;;10.93;7.13;;;24.20;85.80;;;;;;4974838;28;20038;-70
2022/09/07 12:14:31;;;;;;;14.60;7.40;;;24.30;85.50;;;;;;4976561;28;20023;-69
2022/09/07 12:17:11;;;;;;;11.43;7.03;;;24.30;85.50;;;;;;4984755;28;20038;-72
2022/09/07 12:19:37;;;;;;;9.68;6.38;;;24.40;85.50;;;;;;4979927;28;20034;-69
2022/09/07 12:22:04;;;;;;;8.77;5.75;;;24.40;85.60;;;;;;4985556;28;20477;-69
2022/09/07 12:24:38;;;;;;;10.50;6.15;;;24.50;85.40;;;;;;4982000;28;20042;-70
2022/09/07 12:27:19;;;;;;;9.50;5.63;;;24.50;85.40;;;;;;4982699;28;21050;-71
2022/09/07 12:30:09;;;;;;;7.55;5.10;;;24.60;84.80;;;;;;4975158;28;20031;-71
2022/09/07 12:32:50;;;;;;;7.28;5.00;;;24.60;84.90;;;;;;4925902;28;20166;-73
2022/09/07 12:35:42;;;;;;;5.60;3.80;;;24.70;85.50;;;;;;4975854;28;20031;-73
2022/09/07 12:38:17;;;;;;;6.20;3.65;;;24.80;84.90;;;;;;4973071;28;20042;-72
2022/09/07 12:40:47;;;;;;;6.35;4.05;;;24.90;84.50;;;;;;4981699;28;20482;-73
2022/09/07 12:43:12;;;;;;;6.07;3.72;;;24.90;84.70;;;;;;4985078;28;20133;-69
2022/09/07 12:45:38;;;;;;;7.35;4.47;;;24.90;84.30;;;;;;4976280;28;20109;-70
2022/09/07 12:48:16;;;;;;;13.73;4.43;;;25.00;84.40;;;;;;4979520;28;20038;-69
2022/09/07 12:51:15;;;;;;;8.15;4.43;;;25.00;83.90;;;;;;4981553;28;20066;-69
2022/09/07 12:53:43;;;;;;;7.00;4.80;;;25.10;83.80;;;;;;4967135;28;20078;-69
2022/09/07 12:56:37;;;;;;;6.35;4.43;;;25.20;83.50;;;;;;4982485;28;20077;-69
2022/09/07 12:59:05;;;;;;;;;;;25.30;83.60;;;;;;4982954;28;20030;-69
2022/09/07 13:01:36;;;;;;;6.93;3.60;;;25.40;84.20;;;;;;4986112;28;19914;-68
2022/09/07 13:04:41;;;;;;;4.95;3.58;;;25.40;83.90;;;;;;4980178;28;20042;-69
2022/09/07 13:07:28;;;;;;;41.78;4.38;;;25.50;84.40;;;;;;4949104;28;20116;-68